Time;durP1;ratioP1;P1;durP2;ratioP2;P2;SDS_P1;SDS_P2;PMS_P1;PMS_P2;Temp;Humidity;BMP_temperature;BMP_pressure;BME280_temperature;BME280_humidity;BME280_pressure;Samples;Min_cycle;Max_cycle;Signal;HPM_P1;HPM_P2
2023/04/23 00:00:05;;;;;;;33.70;23.73;;;8.50;99.90;;;;;;5090125;27;20058;-74
2023/04/23 00:02:33;;;;;;;31.20;21.20;;;9.10;99.90;;;;;;5108200;27;20043;-75
2023/04/23 00:05:03;;;;;;;31.48;21.38;;;8.40;99.90;;;;;;5106787;27;20066;-74
2023/04/23 00:07:31;;;;;;;39.20;23.05;;;7.80;99.90;;;;;;5126208;27;20045;-74
2023/04/23 00:09:58;;;;;;;32.92;22.38;;;8.40;99.90;;;;;;5124791;27;20552;-74
2023/04/23 00:12:24;;;;;;;38.90;23.15;;;8.90;99.90;;;;;;5107191;27;20078;-74
2023/04/23 00:14:50;;;;;;;35.83;23.23;;;8.70;99.90;;;;;;5107371;27;20137;-75
2023/04/23 00:17:16;;;;;;;34.63;23.08;;;8.30;99.90;;;;;;5125125;27;20038;-74
2023/04/23 00:19:42;;;;;;;41.47;24.98;;;8.30;99.90;;;;;;5126050;27;20035;-74
2023/04/23 00:22:08;;;;;;;41.05;25.50;;;8.30;99.90;;;;;;5106231;27;20047;-74
2023/04/23 00:24:35;;;;;;;44.28;24.35;;;8.30;99.90;;;;;;5107976;27;20042;-74
2023/04/23 00:27:01;;;;;;;42.72;28.00;;;8.30;99.90;;;;;;5124486;27;20058;-74
2023/04/23 00:29:27;;;;;;;48.55;29.55;;;9.00;99.90;;;;;;5090437;27;20046;-74
2023/04/23 00:31:52;;;;;;;50.55;30.52;;;8.30;99.90;;;;;;5089768;27;20047;-75
2023/04/23 00:34:18;;;;;;;48.97;29.85;;;8.30;99.90;;;;;;5106441;27;20082;-74
2023/04/23 00:36:44;;;;;;;48.35;29.50;;;8.30;99.90;;;;;;5107586;27;20040;-75
2023/04/23 00:39:10;;;;;;;55.05;29.95;;;8.30;99.90;;;;;;5071936;27;20047;-74
2023/04/23 00:41:36;;;;;;;46.22;27.83;;;8.30;99.90;;;;;;5107389;27;20073;-74
2023/04/23 00:44:02;;;;;;;50.38;28.20;;;8.20;99.90;;;;;;5106298;27;20482;-74
2023/04/23 00:46:28;;;;;;;50.15;28.50;;;8.20;99.90;;;;;;5106548;27;20169;-74
2023/04/23 00:48:54;;;;;;;51.10;26.30;;;8.20;99.90;;;;;;5106107;27;20108;-74
2023/04/23 00:51:21;;;;;;;46.75;25.75;;;8.20;99.90;;;;;;5106251;28;20097;-74
2023/04/23 00:53:48;;;;;;;38.28;25.27;;;8.10;99.90;;;;;;5090118;27;20077;-74
2023/04/23 00:56:14;;;;;;;41.80;23.83;;;9.00;99.90;;;;;;5105570;27;20043;-75
2023/04/23 00:58:40;;;;;;;41.95;24.48;;;8.00;99.90;;;;;;5089875;27;20046;-74
2023/04/23 01:01:06;;;;;;;45.28;26.20;;;8.10;99.90;;;;;;5105535;28;20119;-74
2023/04/23 01:03:35;;;;;;;45.28;25.42;;;8.10;99.90;;;;;;5072637;28;20125;-74
2023/04/23 01:06:01;;;;;;;45.67;26.08;;;8.10;99.90;;;;;;5106390;28;20467;-74
2023/04/23 01:08:28;;;;;;;51.40;27.02;;;8.10;99.90;;;;;;5106554;28;20055;-75
2023/04/23 01:10:54;;;;;;;42.05;26.30;;;8.00;99.90;;;;;;5106726;28;20498;-75
2023/04/23 01:13:21;;;;;;;47.05;26.60;;;8.00;99.90;;;;;;5089405;28;20054;-74
2023/04/23 01:15:46;;;;;;;44.72;27.23;;;8.00;99.90;;;;;;5106716;28;20058;-74
2023/04/23 01:18:13;;;;;;;44.85;26.42;;;8.10;99.90;;;;;;5105321;28;20039;-74
2023/04/23 01:20:39;;;;;;;43.13;25.55;;;7.90;99.90;;;;;;5106283;28;20043;-74
2023/04/23 01:23:05;;;;;;;51.20;26.23;;;8.00;99.90;;;;;;5088598;28;20051;-75
2023/04/23 01:25:31;;;;;;;40.40;24.42;;;8.70;99.90;;;;;;5089432;28;20422;-74
2023/04/23 01:27:57;;;;;;;45.53;26.67;;;9.10;99.90;;;;;;5089568;28;20039;-74
2023/04/23 01:30:27;;;;;;;45.88;27.17;;;7.90;99.90;;;;;;5105305;28;20130;-74
2023/04/23 01:32:55;;;;;;;42.17;25.35;;;7.90;99.90;;;;;;5090575;27;20172;-74
2023/04/23 01:35:21;;;;;;;44.45;25.40;;;7.90;99.90;;;;;;5109209;27;20079;-74
2023/04/23 01:37:47;;;;;;;46.30;27.13;;;7.90;99.90;;;;;;5110127;27;20094;-74
2023/04/23 01:40:13;;;;;;;47.33;26.52;;;7.90;99.90;;;;;;5109551;27;20039;-74
2023/04/23 01:42:39;;;;;;;40.60;25.70;;;8.50;99.90;;;;;;5109930;27;20093;-74
2023/04/23 01:45:06;;;;;;;45.72;26.13;;;7.90;99.90;;;;;;5093961;27;20065;-74
2023/04/23 01:47:34;;;;;;;52.28;27.15;;;7.90;99.90;;;;;;5075488;27;20111;-74
2023/04/23 01:49:59;;;;;;;45.95;26.70;;;8.40;99.90;;;;;;5110441;27;20055;-74
2023/04/23 01:52:25;;;;;;;46.65;26.48;;;8.10;99.90;;;;;;5108842;27;20481;-74
2023/04/23 01:54:51;;;;;;;45.28;26.65;;;7.90;99.90;;;;;;5109710;27;20060;-74
2023/04/23 01:57:23;;;;;;;47.08;27.65;;;8.00;99.90;;;;;;5109615;27;20043;-74
2023/04/23 01:59:49;;;;;;;52.38;26.98;;;8.40;99.90;;;;;;5110147;27;20045;-74
2023/04/23 02:02:15;;;;;;;47.00;28.05;;;8.00;99.90;;;;;;5110606;27;20470;-74
2023/04/23 02:04:44;;;;;;;51.97;29.02;;;7.90;99.90;;;;;;5108877;27;20146;-74
2023/04/23 02:07:10;;;;;;;53.28;28.35;;;7.90;99.90;;;;;;5110201;27;20035;-74
2023/04/23 02:09:36;;;;;;;56.17;29.80;;;7.90;99.90;;;;;;5108612;27;20054;-74
2023/04/23 02:12:01;;;;;;;58.28;30.70;;;7.90;99.90;;;;;;5109417;27;20051;-75
2023/04/23 02:14:28;;;;;;;56.38;31.65;;;7.90;99.90;;;;;;5108834;27;20057;-75
2023/04/23 02:16:54;;;;;;;58.67;33.88;;;8.80;99.90;;;;;;5109322;27;20109;-74
2023/04/23 02:19:20;;;;;;;58.63;33.42;;;7.90;99.90;;;;;;5128624;27;20445;-75
2023/04/23 02:21:46;;;;;;;57.13;32.95;;;7.90;99.90;;;;;;5127199;27;20510;-75
2023/04/23 02:24:12;;;;;;;56.35;33.30;;;7.90;99.90;;;;;;5109518;27;20035;-76
2023/04/23 02:26:37;;;;;;;61.60;32.88;;;7.90;99.90;;;;;;5127181;27;20133;-75
2023/04/23 02:29:03;;;;;;;64.07;34.13;;;7.90;99.90;;;;;;5127951;27;20043;-75
2023/04/23 02:31:29;;;;;;;69.03;35.35;;;7.80;99.90;;;;;;5127359;27;20051;-75
2023/04/23 02:33:55;;;;;;;67.05;35.17;;;7.80;99.90;;;;;;5127695;27;20039;-75
2023/04/23 02:36:21;;;;;;;69.05;37.20;;;7.80;99.90;;;;;;5109553;27;20094;-75
2023/04/23 02:38:48;;;;;;;72.65;36.45;;;7.80;99.90;;;;;;5126987;27;20051;-74
2023/04/23 02:41:13;;;;;;;65.78;37.90;;;7.70;99.90;;;;;;5128091;27;20054;-75
2023/04/23 02:43:39;;;;;;;70.45;36.05;;;8.30;99.90;;;;;;5126314;27;20038;-75
2023/04/23 02:46:08;;;;;;;71.95;38.60;;;7.70;99.90;;;;;;5126755;27;20114;-75
2023/04/23 02:48:41;;;;;;;71.07;38.47;;;7.70;99.90;;;;;;5107912;27;20055;-76
2023/04/23 02:51:10;;;;;;;;;;;7.70;99.90;;;;;;5108953;27;20054;-75
2023/04/23 02:53:36;;;;;;;66.60;36.65;;;7.70;99.90;;;;;;5092126;27;19923;-75
2023/04/23 02:56:02;;;;;;;71.32;38.08;;;7.70;99.90;;;;;;5126525;27;20131;-75
2023/04/23 02:58:28;;;;;;;69.78;37.95;;;7.80;99.90;;;;;;5127489;27;20092;-75
2023/04/23 03:00:54;;;;;;;79.53;41.25;;;7.70;99.90;;;;;;5107647;27;20502;-74
2023/04/23 03:03:20;;;;;;;81.05;41.05;;;7.70;99.90;;;;;;5108387;27;20115;-75
2023/04/23 03:05:46;;;;;;;78.35;41.50;;;7.70;99.90;;;;;;5126788;27;20114;-75
2023/04/23 03:08:12;;;;;;;75.93;42.10;;;7.70;99.90;;;;;;5126917;27;20039;-75
2023/04/23 03:10:37;;;;;;;74.80;40.58;;;7.60;99.90;;;;;;5127420;27;20138;-75
2023/04/23 03:13:03;;;;;;;82.78;42.35;;;7.60;99.90;;;;;;5126046;27;20911;-74
2023/04/23 03:15:29;;;;;;;81.55;42.92;;;7.60;99.90;;;;;;5127363;27;20130;-75
2023/04/23 03:17:55;;;;;;;80.97;40.08;;;8.50;99.90;;;;;;5125926;27;20047;-75
2023/04/23 03:20:21;;;;;;;73.80;41.25;;;7.50;99.90;;;;;;5126725;27;20556;-74
2023/04/23 03:22:46;;;;;;;81.05;41.42;;;7.50;99.90;;;;;;5107763;27;20086;-75
2023/04/23 03:25:12;;;;;;;76.63;40.38;;;7.50;99.90;;;;;;5126753;27;20099;-75
2023/04/23 03:27:42;;;;;;;75.40;41.00;;;7.50;99.90;;;;;;5126856;27;20567;-75
2023/04/23 03:30:08;;;;;;;70.40;38.17;;;7.50;99.90;;;;;;5125949;27;20122;-75
2023/04/23 03:32:35;;;;;;;80.10;39.33;;;7.50;99.90;;;;;;5126917;27;20046;-75
2023/04/23 03:35:01;;;;;;;75.07;39.83;;;7.40;99.90;;;;;;5125582;27;20051;-75
2023/04/23 03:37:26;;;;;;;75.00;39.20;;;8.70;99.90;;;;;;5126501;27;20087;-75
2023/04/23 03:39:52;;;;;;;77.68;40.97;;;7.40;99.90;;;;;;5125938;27;20149;-75
2023/04/23 03:42:18;;;;;;;74.15;39.53;;;7.30;99.90;;;;;;5126290;27;20130;-75
2023/04/23 03:44:43;;;;;;;80.18;42.38;;;7.30;99.90;;;;;;5126571;27;20039;-75
2023/04/23 03:47:09;;;;;;;79.68;39.70;;;8.40;99.90;;;;;;5126123;27;20035;-75
2023/04/23 03:49:35;;;;;;;85.50;42.03;;;7.20;99.90;;;;;;5091293;27;20120;-75
2023/04/23 03:52:01;;;;;;;77.60;38.65;;;7.20;99.90;;;;;;5125407;27;20063;-75
2023/04/23 03:54:27;;;;;;;76.22;40.22;;;7.20;99.90;;;;;;5107431;27;20635;-75
2023/04/23 03:56:53;;;;;;;97.30;41.42;;;7.30;99.90;;;;;;5106885;27;20039;-75
2023/04/23 03:59:19;;;;;;;83.38;41.55;;;7.20;99.90;;;;;;5091240;27;20433;-74
2023/04/23 04:01:47;;;;;;;92.72;41.80;;;7.20;99.90;;;;;;5090265;27;20142;-75
2023/04/23 04:04:13;;;;;;;89.63;43.00;;;7.20;99.90;;;;;;5089914;27;20039;-74
2023/04/23 04:06:39;;;;;;;79.45;41.63;;;7.20;99.90;;;;;;5107894;27;20490;-74
2023/04/23 04:09:07;;;;;;;89.55;44.83;;;7.40;99.90;;;;;;5106280;27;20043;-75
2023/04/23 04:11:33;;;;;;;103.28;46.47;;;7.20;99.90;;;;;;5107077;27;20090;-74
2023/04/23 04:13:58;;;;;;;96.47;44.33;;;7.20;99.90;;;;;;5106353;27;20039;-75
2023/04/23 04:16:24;;;;;;;107.35;46.67;;;7.30;99.90;;;;;;5090327;27;20107;-75
2023/04/23 04:18:50;;;;;;;101.65;48.47;;;8.20;99.90;;;;;;5089839;27;20130;-75
2023/04/23 04:21:17;;;;;;;101.13;47.05;;;7.50;99.90;;;;;;5106407;27;20049;-75
2023/04/23 04:23:44;;;;;;;104.30;48.85;;;7.30;99.90;;;;;;5090864;27;20380;-75
2023/04/23 04:26:10;;;;;;;121.38;50.00;;;8.20;99.90;;;;;;5106280;27;20066;-75
2023/04/23 04:28:36;;;;;;;114.00;49.03;;;7.70;99.90;;;;;;5125562;27;20094;-75
2023/04/23 04:31:05;;;;;;;112.10;50.50;;;7.40;99.90;;;;;;5089703;27;20039;-75
2023/04/23 04:33:34;;;;;;;99.95;50.03;;;7.40;99.90;;;;;;5106749;27;20043;-75
2023/04/23 04:36:00;;;;;;;109.63;50.22;;;7.40;99.90;;;;;;5106746;27;20043;-75
2023/04/23 04:38:27;;;;;;;112.85;49.53;;;7.50;99.90;;;;;;5124847;27;20051;-75
2023/04/23 04:40:58;;;;;;;117.95;49.85;;;7.50;99.90;;;;;;5126252;27;20043;-76
2023/04/23 04:43:25;;;;;;;158.25;52.40;;;7.50;99.90;;;;;;5124053;27;20055;-75
2023/04/23 04:45:51;;;;;;;120.85;50.75;;;8.40;99.90;;;;;;5124941;27;20053;-74
2023/04/23 04:48:17;;;;;;;126.10;50.33;;;7.50;99.90;;;;;;5124772;27;20042;-75
2023/04/23 04:50:43;;;;;;;129.75;51.17;;;7.60;99.90;;;;;;5106604;27;20371;-74
2023/04/23 04:53:09;;;;;;;132.43;50.67;;;7.60;99.90;;;;;;5125292;27;20441;-74
2023/04/23 04:55:34;;;;;;;123.65;50.83;;;7.70;99.90;;;;;;5124814;27;20130;-74
2023/04/23 04:58:00;;;;;;;124.75;51.17;;;7.60;99.90;;;;;;5125394;27;20047;-74
2023/04/23 05:00:28;;;;;;;142.95;54.35;;;7.70;99.90;;;;;;5124236;27;20050;-74
2023/04/23 05:02:58;;;;;;;122.70;51.08;;;7.70;99.90;;;;;;5124751;27;20478;-75
2023/04/23 05:05:24;;;;;;;113.80;49.97;;;8.00;99.90;;;;;;5124375;28;20043;-74
2023/04/23 05:07:51;;;;;;;108.13;49.63;;;7.70;99.90;;;;;;5124047;27;20039;-74
2023/04/23 05:10:16;;;;;;;105.82;47.88;;;7.90;99.90;;;;;;5124698;28;20502;-75
2023/04/23 05:12:42;;;;;;;101.60;48.22;;;7.70;99.90;;;;;;5124404;28;20050;-74
2023/04/23 05:15:12;;;;;;;92.05;46.03;;;7.70;99.90;;;;;;5125636;28;20036;-74
2023/04/23 05:17:41;;;;;;;92.72;47.25;;;8.50;99.90;;;;;;5124174;28;20043;-74
2023/04/23 05:20:10;;;;;;;90.18;47.22;;;7.80;99.90;;;;;;5124764;28;20043;-75
2023/04/23 05:22:42;;;;;;;100.68;48.20;;;7.80;99.90;;;;;;5124053;28;20054;-74
2023/04/23 05:25:10;;;;;;;92.30;46.88;;;7.80;99.90;;;;;;5105977;28;20047;-75
2023/04/23 05:27:36;;;;;;;87.70;45.72;;;7.90;99.90;;;;;;5106864;28;20051;-75
2023/04/23 05:30:04;;;;;;;85.75;44.55;;;8.70;99.90;;;;;;5105736;28;20050;-74
2023/04/23 05:32:29;;;;;;;89.03;44.78;;;7.90;99.90;;;;;;5124981;28;20157;-74
2023/04/23 05:34:55;;;;;;;84.82;45.80;;;7.90;99.90;;;;;;5124166;28;20138;-75
2023/04/23 05:37:21;;;;;;;84.47;44.47;;;7.90;99.90;;;;;;5106028;28;20059;-74
2023/04/23 05:39:47;;;;;;;82.75;42.65;;;8.80;99.90;;;;;;5123901;28;20039;-75
2023/04/23 05:42:12;;;;;;;80.28;43.33;;;7.90;99.90;;;;;;5088729;28;20047;-74
2023/04/23 05:44:40;;;;;;;85.53;44.55;;;7.90;99.90;;;;;;5124609;28;20052;-74
2023/04/23 05:47:07;;;;;;;89.85;44.70;;;7.90;99.90;;;;;;5105815;28;20083;-74
2023/04/23 05:49:33;;;;;;;82.75;43.90;;;7.90;99.90;;;;;;5089100;28;20051;-74
2023/04/23 05:52:01;;;;;;;81.15;44.22;;;7.90;99.90;;;;;;5088161;28;20114;-75
2023/04/23 05:54:27;;;;;;;85.40;45.90;;;7.90;99.90;;;;;;5106131;28;20048;-75
2023/04/23 05:56:53;;;;;;;82.15;44.88;;;8.00;99.90;;;;;;5088958;28;20105;-75
2023/04/23 05:59:18;;;;;;;85.53;47.65;;;9.10;99.90;;;;;;5105684;28;20397;-75
2023/04/23 06:01:45;;;;;;;92.35;48.33;;;8.00;99.90;;;;;;5072114;28;20027;-75
2023/04/23 06:04:10;;;;;;;98.63;50.58;;;8.00;99.90;;;;;;5105398;28;20116;-75
2023/04/23 06:06:36;;;;;;;104.13;50.65;;;8.10;99.90;;;;;;5124946;28;20431;-75
2023/04/23 06:09:03;;;;;;;93.75;49.20;;;8.20;99.90;;;;;;5105024;28;20421;-75
2023/04/23 06:11:31;;;;;;;104.60;49.13;;;8.20;99.90;;;;;;5089230;28;20051;-76
2023/04/23 06:13:57;;;;;;;95.63;49.47;;;8.20;99.90;;;;;;5124118;28;20131;-76
2023/04/23 06:16:23;;;;;;;100.93;51.53;;;8.30;99.90;;;;;;5106224;28;20043;-75
2023/04/23 06:18:49;;;;;;;103.65;51.85;;;8.40;99.90;;;;;;5125505;27;20055;-75
2023/04/23 06:21:15;;;;;;;110.60;52.65;;;8.50;99.90;;;;;;5109103;27;20363;-75
2023/04/23 06:23:40;;;;;;;99.28;49.65;;;8.60;99.90;;;;;;5075881;27;20097;-75
2023/04/23 06:26:06;;;;;;;103.95;51.10;;;8.60;99.90;;;;;;5108484;27;20070;-75
2023/04/23 06:28:32;;;;;;;105.47;53.42;;;9.40;99.90;;;;;;5109024;27;20043;-75
2023/04/23 06:30:57;;;;;;;102.68;52.30;;;9.60;99.90;;;;;;5108651;27;20039;-75
2023/04/23 06:33:23;;;;;;;105.85;53.78;;;9.00;99.90;;;;;;5109100;27;20047;-74
2023/04/23 06:35:49;;;;;;;100.32;52.15;;;8.80;99.90;;;;;;5108764;27;20039;-74
2023/04/23 06:38:15;;;;;;;104.85;54.25;;;9.00;99.90;;;;;;5127554;27;20436;-75
2023/04/23 06:40:40;;;;;;;95.72;51.70;;;9.20;99.90;;;;;;5128087;27;20038;-75
2023/04/23 06:43:06;;;;;;;97.75;52.97;;;9.30;99.90;;;;;;5107930;27;20525;-76
2023/04/23 06:45:34;;;;;;;92.20;50.28;;;9.50;99.90;;;;;;5109200;27;20046;-75
2023/04/23 06:47:59;;;;;;;92.00;49.10;;;9.60;99.90;;;;;;5091665;27;20047;-75
2023/04/23 06:50:26;;;;;;;87.50;48.97;;;9.60;99.90;;;;;;5127139;27;20543;-75
2023/04/23 06:52:52;;;;;;;86.13;48.92;;;9.70;99.90;;;;;;5127126;27;20043;-76
2023/04/23 06:55:18;;;;;;;89.10;49.58;;;9.80;99.90;;;;;;5108576;27;20140;-75
2023/04/23 06:57:44;;;;;;;84.93;48.00;;;9.80;99.90;;;;;;5109623;27;20093;-75
2023/04/23 07:00:10;;;;;;;85.47;48.15;;;9.80;99.90;;;;;;5107747;27;20509;-75
2023/04/23 07:02:36;;;;;;;79.88;45.70;;;9.80;99.90;;;;;;5127047;27;20097;-78
2023/04/23 07:05:02;;;;;;;83.88;46.88;;;9.80;99.90;;;;;;5090901;27;20482;-77
2023/04/23 07:07:28;;;;;;;77.25;45.78;;;9.90;99.90;;;;;;5126904;27;20039;-78
2023/04/23 07:09:54;;;;;;;71.60;43.63;;;9.90;99.90;;;;;;5108103;27;20451;-77
2023/04/23 07:12:19;;;;;;;74.40;42.75;;;10.00;99.90;;;;;;5107945;27;20394;-77
2023/04/23 07:14:45;;;;;;;75.57;43.85;;;10.10;99.90;;;;;;5108642;27;20078;-76
2023/04/23 07:17:11;;;;;;;67.35;41.55;;;10.20;99.90;;;;;;5107481;27;20069;-75
2023/04/23 07:19:37;;;;;;;69.53;40.28;;;10.30;99.90;;;;;;5126821;27;20047;-79
2023/04/23 07:22:03;;;;;;;62.90;40.15;;;10.50;99.90;;;;;;5107017;27;20050;-74
2023/04/23 07:24:28;;;;;;;62.20;39.80;;;10.60;99.90;;;;;;5126892;27;20036;-74
2023/04/23 07:26:54;;;;;;;57.45;36.85;;;10.70;99.90;;;;;;5107745;27;20438;-75
2023/04/23 07:29:20;;;;;;;59.50;36.88;;;10.80;99.90;;;;;;5107325;27;20485;-76
2023/04/23 07:31:47;;;;;;;57.22;36.63;;;11.00;99.90;;;;;;5126479;27;20100;-78
2023/04/23 07:34:13;;;;;;;51.55;34.88;;;11.10;99.90;;;;;;5106743;27;20032;-76
2023/04/23 07:36:39;;;;;;;55.20;35.42;;;11.20;99.90;;;;;;5108597;27;20034;-77
2023/04/23 07:39:04;;;;;;;53.30;35.72;;;11.40;99.90;;;;;;5125572;27;20554;-78
2023/04/23 07:41:31;;;;;;;49.10;33.25;;;11.60;99.90;;;;;;5125792;27;20061;-79
2023/04/23 07:43:56;;;;;;;49.70;33.15;;;11.70;99.90;;;;;;5125583;27;20502;-79
2023/04/23 07:46:23;;;;;;;51.25;33.05;;;11.90;99.90;;;;;;5107949;27;20463;-78
2023/04/23 07:48:49;;;;;;;45.65;32.00;;;12.00;99.90;;;;;;5107913;27;20043;-81
2023/04/23 07:51:15;;;;;;;47.42;31.48;;;12.30;99.90;;;;;;5106443;27;20043;-79
2023/04/23 07:53:41;;;;;;;46.35;32.75;;;12.30;99.90;;;;;;5107918;27;20046;-79
2023/04/23 07:56:06;;;;;;;44.15;29.98;;;12.40;99.90;;;;;;5106831;27;20074;-79
2023/04/23 07:58:32;;;;;;;43.17;29.02;;;12.50;99.90;;;;;;5106896;27;20137;-78
2023/04/23 08:01:00;;;;;;;46.10;29.77;;;12.60;99.90;;;;;;5107008;27;20218;-81
2023/04/23 08:03:27;;;;;;;42.97;29.67;;;12.80;99.90;;;;;;5089999;27;20092;-80
2023/04/23 08:05:53;;;;;;;38.55;28.08;;;12.80;99.90;;;;;;5125118;27;20092;-78
2023/04/23 08:08:18;;;;;;;38.17;28.58;;;12.90;99.90;;;;;;5089645;27;20047;-77
2023/04/23 08:10:46;;;;;;;42.88;28.23;;;13.00;99.90;;;;;;5107429;27;20522;-78
2023/04/23 08:13:11;;;;;;;37.75;27.52;;;13.20;99.90;;;;;;5105757;27;20510;-78
2023/04/23 08:15:37;;;;;;;44.83;27.35;;;13.30;99.90;;;;;;5125475;27;20035;-77
2023/04/23 08:18:03;;;;;;;40.25;26.25;;;13.40;99.90;;;;;;5106490;27;20097;-80
2023/04/23 08:20:30;;;;;;;33.15;25.23;;;13.50;99.90;;;;;;5106216;27;20118;-79
2023/04/23 08:22:56;;;;;;;38.20;26.00;;;13.70;99.90;;;;;;5089540;27;20058;-79
2023/04/23 08:25:22;;;;;;;37.92;26.92;;;13.80;99.90;;;;;;5106302;27;20043;-78
2023/04/23 08:27:48;;;;;;;33.25;24.48;;;13.90;99.90;;;;;;5090572;27;20050;-79
2023/04/23 08:30:14;;;;;;;38.80;25.98;;;14.10;99.90;;;;;;5089026;27;20058;-80
2023/04/23 08:32:40;;;;;;;34.25;23.40;;;14.20;99.90;;;;;;5090950;27;20043;-82
2023/04/23 08:35:07;;;;;;;33.92;23.80;;;14.30;99.90;;;;;;5109430;27;20491;-80
2023/04/23 08:37:33;;;;;;;30.20;23.42;;;14.40;99.90;;;;;;5108240;27;20051;-80
2023/04/23 08:40:00;;;;;;;33.25;23.67;;;14.40;99.90;;;;;;5091773;27;20039;-81
2023/04/23 08:42:56;;;;;;;32.22;23.35;;;14.50;99.90;;;;;;5089204;28;20085;-80
2023/04/23 08:45:23;;;;;;;29.27;20.73;;;14.50;99.90;;;;;;5107835;27;20069;-80
2023/04/23 08:47:49;;;;;;;30.35;22.40;;;14.50;99.90;;;;;;5089568;27;20051;-80
2023/04/23 08:50:16;;;;;;;31.35;22.73;;;14.60;99.90;;;;;;5106921;28;20133;-80
2023/04/23 08:52:49;;;;;;;33.30;22.40;;;14.70;99.90;;;;;;5107451;27;20339;-81
2023/04/23 08:55:15;;;;;;;27.17;20.23;;;14.80;99.90;;;;;;5125707;27;20061;-80
2023/04/23 08:57:41;;;;;;;28.73;20.90;;;14.90;99.90;;;;;;5107329;28;20511;-82
2023/04/23 09:00:09;;;;;;;25.73;19.83;;;15.00;99.90;;;;;;5088838;27;20053;-80
2023/04/23 09:02:36;;;;;;;25.80;19.38;;;15.10;99.90;;;;;;5089403;27;20043;-80
2023/04/23 09:05:03;;;;;;;31.02;21.00;;;15.10;99.90;;;;;;5105633;27;20039;-81
2023/04/23 09:07:29;;;;;;;30.15;19.83;;;15.20;99.90;;;;;;5107123;28;20444;-81
2023/04/23 09:09:55;;;;;;;23.88;17.48;;;15.20;99.90;;;;;;5106342;28;20122;-81
2023/04/23 09:12:21;;;;;;;23.85;18.38;;;15.30;99.90;;;;;;5104689;28;20444;-79
2023/04/23 09:14:50;;;;;;;24.33;15.05;;;15.30;99.90;;;;;;5125153;28;20130;-79
2023/04/23 09:17:17;;;;;;;26.65;17.00;;;15.30;99.90;;;;;;5105601;28;20046;-79
2023/04/23 09:19:45;;;;;;;26.00;16.13;;;15.30;99.90;;;;;;5089194;28;20516;-79
2023/04/23 09:22:11;;;;;;;24.08;16.80;;;15.50;99.90;;;;;;5105196;28;20630;-80
2023/04/23 09:24:42;;;;;;;22.90;14.32;;;15.60;99.90;;;;;;5088995;28;20042;-78
2023/04/23 09:27:08;;;;;;;20.65;14.50;;;15.70;99.90;;;;;;5105874;28;20043;-82
2023/04/23 09:29:37;;;;;;;18.77;13.93;;;15.70;99.90;;;;;;5124257;28;20046;-79
2023/04/23 09:32:09;;;;;;;23.38;15.07;;;15.80;99.90;;;;;;5106727;28;20622;-79
2023/04/23 09:34:37;;;;;;;21.00;14.55;;;16.00;99.90;;;;;;5105335;28;20320;-78
2023/04/23 09:37:06;;;;;;;21.48;13.98;;;16.20;99.90;;;;;;5106087;28;20406;-78
2023/04/23 09:39:34;;;;;;;20.90;14.43;;;16.30;99.90;;;;;;5105465;28;20047;-79
2023/04/23 09:42:04;;;;;;;21.77;13.50;;;16.40;99.90;;;;;;5088925;28;20055;-80
2023/04/23 09:44:32;;;;;;;18.45;12.45;;;16.50;99.90;;;;;;5107131;28;20386;-80
2023/04/23 09:47:10;;;;;;;17.90;11.05;;;16.50;99.90;;;;;;5105720;28;20045;-78
2023/04/23 09:49:49;;;;;;;15.65;11.50;;;16.50;99.90;;;;;;5105874;28;20663;-78
2023/04/23 09:52:15;;;;;;;17.27;10.70;;;16.70;99.90;;;;;;5123634;28;20050;-78
2023/04/23 09:54:42;;;;;;;20.33;11.38;;;16.80;99.90;;;;;;5108659;27;20043;-77
2023/04/23 09:57:07;;;;;;;18.10;11.55;;;16.90;99.90;;;;;;5110218;27;20196;-78
2023/04/23 09:59:38;;;;;;;12.40;9.43;;;16.90;99.90;;;;;;5108876;27;20553;-80
2023/04/23 10:02:05;;;;;;;15.57;10.13;;;17.10;99.90;;;;;;5110053;27;20044;-77
2023/04/23 10:04:32;;;;;;;17.80;10.90;;;17.10;99.90;;;;;;5109101;27;20043;-78
2023/04/23 10:07:03;;;;;;;16.25;10.63;;;17.10;99.90;;;;;;5109450;27;20050;-78
2023/04/23 10:09:30;;;;;;;13.50;8.93;;;17.30;99.90;;;;;;5108776;27;20054;-78
2023/04/23 10:11:58;;;;;;;17.48;10.05;;;17.40;99.90;;;;;;5109662;27;20111;-77
2023/04/23 10:14:25;;;;;;;13.60;9.20;;;17.40;99.90;;;;;;5109653;27;20569;-77
2023/04/23 10:16:59;;;;;;;17.08;8.98;;;17.40;99.90;;;;;;5127144;27;20095;-78
2023/04/23 10:19:27;;;;;;;13.63;8.90;;;17.40;99.90;;;;;;5093150;27;20390;-80
2023/04/23 10:22:06;;;;;;;17.45;8.45;;;17.30;99.90;;;;;;5108760;27;20066;-84
2023/04/23 10:24:36;;;;;;;15.82;8.27;;;17.20;99.90;;;;;;5108991;27;20039;-80
2023/04/23 10:27:04;;;;;;;13.43;7.15;;;17.10;99.90;;;;;;5108430;27;20043;-80
2023/04/23 10:29:34;;;;;;;10.38;6.00;;;17.10;99.90;;;;;;5108311;27;20075;-80
2023/04/23 10:32:08;;;;;;;13.80;6.32;;;17.10;99.90;;;;;;5092859;27;20079;-80
2023/04/23 10:34:34;;;;;;;13.00;5.30;;;17.20;99.90;;;;;;5108026;27;20051;-81
2023/04/23 10:37:01;;;;;;;12.20;4.70;;;17.20;99.90;;;;;;5091554;27;20091;-80
2023/04/23 10:39:29;;;;;;;11.00;5.10;;;17.10;99.90;;;;;;5108143;27;20079;-80
2023/04/23 10:41:56;;;;;;;14.93;5.20;;;17.20;99.90;;;;;;5091619;27;20484;-80
2023/04/23 10:44:22;;;;;;;18.90;5.35;;;17.10;99.90;;;;;;5108803;27;20049;-81
2023/04/23 10:46:56;;;;;;;11.65;5.00;;;17.10;99.90;;;;;;5091271;27;20031;-80
2023/04/23 10:49:24;;;;;;;10.88;4.30;;;17.30;99.90;;;;;;5108663;27;20112;-80
2023/04/23 10:52:22;;;;;;;11.50;4.47;;;17.40;99.90;;;;;;5091143;27;20047;-79
2023/04/23 10:54:56;;;;;;;10.45;3.42;;;17.70;99.90;;;;;;5092518;27;20047;-80
2023/04/23 10:57:22;;;;;;;8.05;3.03;;;18.00;99.90;;;;;;5127718;27;20486;-80
2023/04/23 10:59:53;;;;;;;9.65;3.42;;;18.10;99.90;;;;;;5107940;27;20126;-79
2023/04/23 11:02:19;;;;;;;8.68;2.83;;;18.10;99.90;;;;;;5108877;27;20291;-78
2023/04/23 11:04:53;;;;;;;9.63;3.05;;;18.00;99.90;;;;;;5073657;27;20031;-80
2023/04/23 11:07:19;;;;;;;9.63;3.08;;;17.50;99.90;;;;;;5075744;27;20439;-80
2023/04/23 11:09:48;;;;;;;12.50;3.88;;;18.10;99.90;;;;;;5126569;27;20114;-79
2023/04/23 11:12:23;;;;;;;9.07;3.25;;;18.30;99.90;;;;;;5127046;27;20035;-79
2023/04/23 11:14:51;;;;;;;11.00;3.08;;;18.40;99.90;;;;;;5127596;27;20133;-80
2023/04/23 11:17:20;;;;;;;9.10;2.80;;;18.30;99.90;;;;;;5090839;27;20051;-79
2023/04/23 11:20:12;;;;;;;5.43;2.20;;;18.20;99.90;;;;;;5126698;27;20115;-79
2023/04/23 11:22:45;;;;;;;9.27;2.40;;;18.20;99.90;;;;;;5126816;27;20110;-79
2023/04/23 11:25:12;;;;;;;7.53;2.47;;;18.40;99.90;;;;;;5107298;27;20043;-78
2023/04/23 11:27:40;;;;;;;11.98;2.80;;;18.50;99.90;;;;;;5108741;27;20089;-80
2023/04/23 11:30:15;;;;;;;8.20;2.28;;;18.80;99.90;;;;;;5126132;27;20816;-78
2023/04/23 11:32:43;;;;;;;7.45;1.83;;;19.10;99.90;;;;;;5125750;27;20051;-78
2023/04/23 11:35:12;;;;;;;4.88;2.13;;;19.30;99.90;;;;;;5125601;27;20066;-80
2023/04/23 11:37:42;;;;;;;8.52;2.28;;;19.70;99.90;;;;;;5107813;27;20401;-78
2023/04/23 11:40:10;;;;;;;9.35;2.20;;;19.70;99.90;;;;;;5074718;27;20470;-79
2023/04/23 11:42:45;;;;;;;6.60;1.38;;;19.90;99.90;;;;;;5107163;27;20558;-80
2023/04/23 11:45:29;;;;;;;4.78;1.77;;;20.00;99.90;;;;;;5091484;27;20134;-79
2023/04/23 11:47:57;;;;;;;6.32;1.40;;;20.10;99.20;;;;;;5125397;27;20043;-79
2023/04/23 11:50:29;;;;;;;4.40;1.50;;;20.10;99.90;;;;;;5107509;27;20047;-79
2023/04/23 11:52:56;;;;;;;5.00;1.33;;;19.80;97.80;;;;;;5126356;27;20127;-81
2023/04/23 11:55:22;;;;;;;7.47;1.35;;;19.90;98.00;;;;;;5124819;27;20074;-78
2023/04/23 11:57:51;;;;;;;4.32;1.73;;;19.70;98.10;;;;;;5108102;27;20039;-81
2023/04/23 12:00:20;;;;;;;5.10;2.20;;;19.80;97.70;;;;;;5107462;27;20051;-81
2023/04/23 12:02:57;;;;;;;6.85;1.90;;;19.70;97.60;;;;;;5125859;27;20051;-79
2023/04/23 12:05:27;;;;;;;5.78;1.73;;;19.80;95.00;;;;;;5107070;27;20485;-80
2023/04/23 12:07:53;;;;;;;5.13;2.13;;;19.70;95.80;;;;;;5125435;27;20053;-79
2023/04/23 12:10:20;;;;;;;9.63;2.25;;;19.60;95.40;;;;;;5107533;27;20079;-81
2023/04/23 12:12:50;;;;;;;4.47;1.70;;;19.40;94.90;;;;;;5125027;27;20342;-79
2023/04/23 12:15:16;;;;;;;6.65;2.05;;;19.30;95.30;;;;;;5125955;27;20050;-79
2023/04/23 12:17:46;;;;;;;5.32;1.48;;;19.20;95.70;;;;;;5125435;27;20036;-80
2023/04/23 12:20:18;;;;;;;6.07;1.23;;;19.30;95.80;;;;;;5090348;27;20512;-80
2023/04/23 12:22:44;;;;;;;6.47;1.77;;;19.50;95.60;;;;;;5125369;27;20047;-80
2023/04/23 12:25:10;;;;;;;8.55;1.70;;;19.60;95.50;;;;;;5106210;27;20039;-79
2023/04/23 12:27:44;;;;;;;6.88;2.08;;;19.70;95.60;;;;;;5090491;27;20051;-79
2023/04/23 12:30:10;;;;;;;5.00;1.73;;;19.50;94.80;;;;;;5124439;27;20560;-80
2023/04/23 12:32:37;;;;;;;5.47;1.50;;;19.40;95.60;;;;;;5125256;27;20043;-80
2023/04/23 12:35:05;;;;;;;4.40;1.15;;;19.30;95.90;;;;;;5105806;27;20080;-80